Time;durP1;ratioP1;P1;durP2;ratioP2;P2;SDS_P1;SDS_P2;PMS_P1;PMS_P2;Temp;Humidity;BMP_temperature;BMP_pressure;BME280_temperature;BME280_humidity;BME280_pressure;Samples;Min_cycle;Max_cycle;Signal;HPM_P1;HPM_P2
2020/12/05 00:00:50;;;;;;;46.30;30.52;;;;;;;1.46;89.10;97960.38;2076235;28;20423;-57
2020/12/05 00:01:51;;;;;;;45.87;30.50;;;;;;;1.46;88.80;97960.38;2082543;28;20025;-58
2020/12/05 00:02:51;;;;;;;54.25;30.35;;;;;;;1.46;88.69;97970.66;2086683;28;20043;-58
2020/12/05 00:03:51;;;;;;;44.90;29.40;;;;;;;1.45;88.30;97974.09;2084588;28;20037;-57
2020/12/05 00:04:52;;;;;;;46.70;29.87;;;;;;;1.41;87.75;97975.09;2084252;28;20654;-58
2020/12/05 00:05:52;;;;;;;41.50;26.93;;;;;;;1.44;88.05;97971.59;2082872;28;20096;-58
2020/12/05 00:06:52;;;;;;;42.60;27.70;;;;;;;1.42;86.96;97978.50;2083209;28;20045;-57
2020/12/05 00:07:53;;;;;;;44.17;27.93;;;;;;;1.43;85.89;97978.44;2083146;28;20104;-58
2020/12/05 00:08:53;;;;;;;42.50;26.33;;;;;;;1.44;85.94;97980.13;2087732;28;20112;-57
2020/12/05 00:09:53;;;;;;;46.40;27.93;;;;;;;1.45;86.52;97973.28;2082065;28;20032;-57
2020/12/05 00:10:53;;;;;;;41.63;27.30;;;;;;;1.45;86.89;97974.09;2088295;28;20079;-57
2020/12/05 00:11:54;;;;;;;41.93;28.20;;;;;;;1.44;87.55;97966.47;2088158;28;20086;-57
2020/12/05 00:12:54;;;;;;;46.37;28.93;;;;;;;1.43;87.50;97970.75;2080658;28;20045;-57
2020/12/05 00:13:55;;;;;;;43.67;28.57;;;;;;;1.42;87.44;97974.19;2085898;28;20017;-57
2020/12/05 00:14:55;;;;;;;43.83;27.43;;;;;;;1.44;86.16;97969.03;2081007;28;20373;-58
2020/12/05 00:15:55;;;;;;;42.77;27.07;;;;;;;1.40;86.69;97966.53;2080651;28;20032;-57
2020/12/05 00:16:56;;;;;;;43.93;27.03;;;;;;;1.42;85.76;97968.22;2080499;28;20025;-58
2020/12/05 00:17:56;;;;;;;38.55;25.95;;;;;;;1.40;85.25;97965.72;2085820;28;20047;-59
2020/12/05 00:18:56;;;;;;;41.40;27.93;;;;;;;1.36;85.27;97961.53;2089062;28;20051;-59
2020/12/05 00:19:57;;;;;;;41.17;27.07;;;;;;;1.33;85.05;97953.91;2089008;28;20028;-59
2020/12/05 00:20:58;;;;;;;39.92;27.60;;;;;;;1.33;84.93;97954.78;2089189;28;20029;-58
2020/12/05 00:21:58;;;;;;;43.87;27.60;;;;;;;1.34;85.32;97956.47;2088807;28;20033;-59
2020/12/05 00:22:58;;;;;;;42.37;27.27;;;;;;;1.38;85.53;97957.22;2088626;28;20031;-58
2020/12/05 00:23:59;;;;;;;42.13;27.50;;;;;;;1.33;85.69;97961.63;2088809;28;20484;-58
2020/12/05 00:24:59;;;;;;;47.33;27.83;;;;;;;1.34;85.82;97965.88;2089123;28;20675;-57
2020/12/05 00:26:00;;;;;;;43.70;28.60;;;;;;;1.31;85.98;97960.84;2088817;28;20333;-58
2020/12/05 00:27:00;;;;;;;43.33;27.70;;;;;;;1.34;86.73;97965.88;2088608;28;20099;-57
2020/12/05 00:28:00;;;;;;;44.00;28.17;;;;;;;1.35;86.26;97967.56;2088515;28;20092;-57
2020/12/05 00:29:00;;;;;;;43.63;27.40;;;;;;;1.35;86.64;97965.84;2089032;28;20029;-57
2020/12/05 00:30:01;;;;;;;42.90;28.17;;;;;;;1.35;86.26;97970.13;2088936;28;20107;-58
2020/12/05 00:31:01;;;;;;;42.87;27.77;;;;;;;1.35;85.87;97972.69;2088908;28;20028;-58
2020/12/05 00:32:06;;;;;;;43.07;27.83;;;;;;;1.37;87.32;97976.06;2088740;28;20032;-58
2020/12/05 00:33:06;;;;;;;47.05;30.20;;;;;;;1.36;88.21;97975.22;2088597;28;20393;-58
2020/12/05 00:34:06;;;;;;;49.03;29.27;;;;;;;1.36;88.89;97974.38;2088532;28;20028;-58
2020/12/05 00:35:07;;;;;;;44.07;28.67;;;;;;;1.35;88.89;97972.69;2088078;28;20500;-58
2020/12/05 00:36:09;;;;;;;44.83;29.07;;;;;;;1.31;88.57;97973.69;2088321;28;20028;-58
2020/12/05 00:37:09;;;;;;;48.45;30.58;;;;;;;1.30;88.32;97974.56;2088856;28;20025;-57
2020/12/05 00:38:09;;;;;;;45.33;29.27;;;;;;;1.28;88.80;97977.16;2089007;28;20516;-57
2020/12/05 00:39:10;;;;;;;45.07;28.77;;;;;;;1.29;88.38;97980.56;2088420;28;20262;-57
2020/12/05 00:40:10;;;;;;;44.47;28.63;;;;;;;1.21;87.81;97979.06;2088950;28;20423;-58
2020/12/05 00:41:16;;;;;;;44.40;29.23;;;;;;;1.26;88.01;97981.50;2088632;28;20058;-58
2020/12/05 00:42:16;;;;;;;48.00;30.95;;;;;;;1.30;88.67;97987.38;2088728;28;20103;-58
2020/12/05 00:43:16;;;;;;;43.27;27.40;;;;;;;1.29;88.83;97983.13;2088640;28;20033;-57
2020/12/05 00:44:17;;;;;;;50.57;29.40;;;;;;;1.29;89.25;97983.97;2088497;28;20025;-58
2020/12/05 00:45:17;;;;;;;47.00;31.33;;;;;;;1.26;89.32;97989.22;2088561;28;20029;-58
2020/12/05 00:46:17;;;;;;;49.73;30.97;;;;;;;1.23;89.60;97984.16;2088881;28;20029;-57
2020/12/05 00:47:18;;;;;;;46.97;31.17;;;;;;;1.23;89.30;97984.97;2088770;28;20033;-58
2020/12/05 00:48:19;;;;;;;47.10;29.67;;;;;;;1.23;89.61;97979.84;2088929;28;20071;-58
2020/12/05 00:49:19;;;;;;;49.23;31.30;;;;;;;1.22;89.39;97988.47;2088606;28;20050;-58
2020/12/05 00:50:19;;;;;;;55.77;33.80;;;;;;;1.23;89.27;97979.84;2088598;28;20503;-58
2020/12/05 00:51:20;;;;;;;47.53;31.27;;;;;;;1.22;89.65;97978.19;2088703;28;20024;-58
2020/12/05 00:52:23;;;;;;;50.93;31.83;;;;;;;1.19;89.27;97977.41;2088760;28;20025;-58
2020/12/05 00:53:24;;;;;;;52.58;30.58;;;;;;;1.17;89.30;97977.47;2088669;28;20154;-57
2020/12/05 00:54:24;;;;;;;56.08;33.03;;;;;;;1.13;89.59;97977.59;2088797;28;20025;-57
2020/12/05 00:55:24;;;;;;;48.90;29.60;;;;;;;1.14;89.79;97982.66;2088178;28;20036;-58
2020/12/05 00:56:24;;;;;;;53.17;32.50;;;;;;;1.11;90.33;97975.06;2088937;28;20056;-58
2020/12/05 00:57:25;;;;;;;54.20;34.27;;;;;;;1.14;90.34;97984.41;2088737;28;20021;-57
2020/12/05 00:58:25;;;;;;;54.20;34.87;;;;;;;1.13;90.49;97987.84;2088845;28;20025;-58
2020/12/05 00:59:25;;;;;;;53.43;33.63;;;;;;;1.14;90.45;97984.41;2088532;28;20053;-58
2020/12/05 01:00:25;;;;;;;57.83;33.17;;;;;;;1.15;90.73;97988.66;2088964;28;20781;-58
2020/12/05 01:01:26;;;;;;;50.30;32.03;;;;;;;1.16;90.71;97990.34;2088235;28;20078;-57
2020/12/05 01:02:26;;;;;;;55.17;32.77;;;;;;;1.15;90.57;97994.63;2079703;28;20049;-57
2020/12/05 01:03:27;;;;;;;56.90;34.30;;;;;;;1.14;90.90;97990.38;2079687;28;20021;-58
2020/12/05 01:04:28;;;;;;;55.83;34.03;;;;;;;1.15;91.26;97992.06;2088591;28;20025;-57
2020/12/05 01:05:29;;;;;;;55.43;35.23;;;;;;;1.15;91.53;97986.91;2087864;28;20088;-57
2020/12/05 01:06:29;;;;;;;57.35;35.22;;;;;;;1.15;91.84;97992.06;2087855;28;20552;-57
2020/12/05 01:07:30;;;;;;;50.40;31.93;;;;;;;1.18;91.65;98002.25;2088687;28;20033;-57
2020/12/05 01:08:30;;;;;;;55.60;33.93;;;;;;;1.17;91.66;97994.59;2088894;28;20064;-57
2020/12/05 01:09:31;;;;;;;55.83;33.37;;;;;;;1.16;91.73;97998.03;2088770;28;20029;-57
2020/12/05 01:10:34;;;;;;;53.67;32.13;;;;;;;1.17;91.93;97995.44;2088745;28;20370;-57
2020/12/05 01:11:35;;;;;;;56.47;33.63;;;;;;;1.18;91.96;97997.13;2088602;28;20039;-57
2020/12/05 01:12:35;;;;;;;55.27;32.73;;;;;;;1.19;92.24;98003.94;2088380;28;20032;-58
2020/12/05 01:13:35;;;;;;;55.33;33.33;;;;;;;1.16;92.00;97998.88;2088779;28;20470;-58
2020/12/05 01:14:35;;;;;;;55.57;32.87;;;;;;;1.16;92.03;98011.69;2088688;28;20027;-57
2020/12/05 01:15:36;;;;;;;59.10;35.23;;;;;;;1.13;91.93;98009.22;2088702;28;20078;-57
2020/12/05 01:16:36;;;;;;;51.20;32.43;;;;;;;1.16;92.33;98014.25;2088679;28;20092;-58
2020/12/05 01:17:36;;;;;;;52.70;32.73;;;;;;;1.15;92.11;98020.28;2087726;28;20028;-57
2020/12/05 01:18:37;;;;;;;61.43;35.57;;;;;;;1.12;91.80;98014.38;2088019;28;20528;-58
2020/12/05 01:19:37;;;;;;;58.10;33.90;;;;;;;1.12;91.76;98017.81;2088679;28;20029;-57
2020/12/05 01:20:38;;;;;;;53.40;32.60;;;;;;;1.11;91.68;98015.28;2088545;28;20385;-58
2020/12/05 01:21:38;;;;;;;57.33;33.97;;;;;;;1.13;91.62;98011.78;2088792;28;20052;-58
2020/12/05 01:22:39;;;;;;;56.87;33.63;;;;;;;1.12;91.92;98012.69;2087929;28;20426;-58
2020/12/05 01:23:39;;;;;;;62.37;35.33;;;;;;;1.12;91.57;98019.53;2088407;28;20759;-58
2020/12/05 01:24:40;;;;;;;56.20;35.35;;;;;;;1.09;91.46;98021.28;2088663;28;20060;-58
2020/12/05 01:25:40;;;;;;;57.50;34.60;;;;;;;1.12;91.73;98019.53;2088615;28;20414;-58
2020/12/05 01:26:40;;;;;;;54.43;34.23;;;;;;;1.13;91.78;98023.78;2088589;28;20028;-58
2020/12/05 01:27:42;;;;;;;56.60;34.27;;;;;;;1.14;91.87;98026.28;2088769;28;20021;-58
2020/12/05 01:28:42;;;;;;;;;;;;;;;1.12;91.57;98028.06;2088717;28;20017;-58
2020/12/05 01:29:43;;;;;;;54.70;33.42;;;;;;;1.14;91.73;98021.16;2088646;28;19915;-58
2020/12/05 01:30:43;;;;;;;58.33;35.28;;;;;;;1.15;91.98;98025.41;2088514;28;20032;-58
2020/12/05 01:31:48;;;;;;;59.60;35.67;;;;;;;1.15;92.00;98024.59;2088535;28;20568;-58
2020/12/05 01:32:48;;;;;;;58.05;34.90;;;;;;;1.15;92.13;98022.00;2088214;28;20024;-58
2020/12/05 01:33:48;;;;;;;54.40;34.43;;;;;;;1.19;92.01;98028.72;2088098;28;20056;-58
2020/12/05 01:34:48;;;;;;;62.17;36.77;;;;;;;1.19;92.02;98032.16;2088463;28;20045;-58
2020/12/05 01:35:49;;;;;;;62.47;37.47;;;;;;;1.20;91.97;98026.13;2083452;28;20064;-58
2020/12/05 01:36:49;;;;;;;59.50;36.03;;;;;;;1.17;91.90;98026.22;2087461;28;20025;-58
2020/12/05 01:37:50;;;;;;;63.40;36.20;;;;;;;1.15;91.94;98025.41;2087336;28;20051;-57
2020/12/05 01:38:50;;;;;;;63.53;37.63;;;;;;;1.16;92.16;98032.22;2087852;28;20389;-58
2020/12/05 01:39:50;;;;;;;62.07;36.17;;;;;;;1.20;92.12;98038.13;2088003;28;20025;-58
2020/12/05 01:40:57;;;;;;;61.00;38.63;;;;;;;1.20;92.25;98041.53;2088058;28;20039;-58
2020/12/05 01:41:57;;;;;;;65.57;37.65;;;;;;;1.20;92.14;98038.97;2088189;28;20440;-58
2020/12/05 01:42:57;;;;;;;66.17;40.03;;;;;;;1.18;92.11;98038.16;2088087;28;20150;-57
2020/12/05 01:43:58;;;;;;;67.83;39.63;;;;;;;1.20;92.54;98033.84;2088329;28;20025;-58
2020/12/05 01:44:58;;;;;;;71.60;41.17;;;;;;;1.21;92.56;98037.22;2087959;28;20028;-58
2020/12/05 01:46:00;;;;;;;67.03;38.60;;;;;;;1.21;92.68;98030.41;2088633;28;20070;-58
2020/12/05 01:47:01;;;;;;;64.55;37.22;;;;;;;1.21;92.81;98027.81;2088446;28;20135;-58
2020/12/05 01:48:02;;;;;;;67.65;38.33;;;;;;;1.20;92.68;98031.28;2088617;28;20048;-58
2020/12/05 01:49:03;;;;;;;66.80;37.30;;;;;;;1.20;92.92;98038.97;2087577;28;20064;-58
2020/12/05 01:50:03;;;;;;;59.00;36.08;;;;;;;1.19;93.05;98036.44;2087654;28;20037;-58
2020/12/05 01:51:03;;;;;;;60.27;36.20;;;;;;;1.19;92.84;98042.41;2088487;28;20037;-58
2020/12/05 01:52:04;;;;;;;64.93;36.43;;;;;;;1.18;93.15;98040.72;2088452;28;20686;-58
2020/12/05 01:53:04;;;;;;;62.57;35.20;;;;;;;1.20;93.06;98036.41;2088442;28;20504;-58
2020/12/05 01:54:07;;;;;;;59.17;35.97;;;;;;;1.21;93.07;98038.09;2088380;28;20500;-58
2020/12/05 01:55:07;;;;;;;60.60;35.28;;;;;;;1.20;92.86;98031.28;2088329;28;20540;-58
2020/12/05 01:56:07;;;;;;;58.07;33.77;;;;;;;1.21;92.93;98029.53;2088042;28;20033;-58
2020/12/05 01:57:08;;;;;;;65.90;36.80;;;;;;;1.20;93.01;98033.84;2088699;28;20393;-58
2020/12/05 01:58:08;;;;;;;66.97;38.73;;;;;;;1.14;93.27;98033.16;2088278;28;20033;-58
2020/12/05 01:59:09;;;;;;;62.63;37.23;;;;;;;1.16;93.48;98039.94;2088538;28;20029;-60
2020/12/05 02:00:09;;;;;;;61.30;36.37;;;;;;;1.14;93.46;98036.56;2088883;28;20493;-58
2020/12/05 02:01:11;;;;;;;63.30;36.73;;;;;;;1.15;93.58;98038.25;2088738;28;20028;-59
2020/12/05 02:02:11;;;;;;;65.00;37.47;;;;;;;1.16;93.52;98044.22;2088411;28;20478;-58
2020/12/05 02:03:14;;;;;;;63.03;36.57;;;;;;;1.14;93.55;98040.84;2088807;28;20100;-58
2020/12/05 02:04:14;;;;;;;65.88;37.05;;;;;;;1.14;93.67;98046.81;2088525;28;20029;-58
2020/12/05 02:05:28;;;;;;;67.13;39.83;;;;;;;1.12;93.67;98048.59;2088634;28;20021;-57
2020/12/05 02:06:49;;;;;;;60.60;36.83;;;;;;;1.16;93.80;98063.00;2088007;28;20025;-57
2020/12/05 02:08:03;;;;;;;65.13;37.03;;;;;;;1.14;93.82;98057.06;2088420;28;20063;-58
2020/12/05 02:09:14;;;;;;;68.18;36.22;;;;;;;1.15;93.75;98056.19;2088545;28;20032;-58
2020/12/05 02:10:23;;;;;;;73.03;38.33;;;;;;;1.14;93.88;98051.94;2088443;28;20052;-57
2020/12/05 02:11:29;;;;;;;61.22;35.08;;;;;;;1.16;94.00;98064.75;2088934;28;20021;-57
2020/12/05 02:12:48;;;;;;;60.10;35.03;;;;;;;1.16;93.77;98063.00;2088673;28;20036;-58
2020/12/05 02:13:54;;;;;;;67.78;37.33;;;;;;;1.14;93.97;98069.91;2090015;28;20016;-57
2020/12/05 02:15:04;;;;;;;64.85;37.13;;;;;;;1.15;94.13;98071.59;2089724;28;20059;-58
2020/12/05 02:16:06;;;;;;;69.38;39.50;;;;;;;1.16;94.21;98072.44;2089976;28;20748;-58
2020/12/05 02:17:07;;;;;;;74.57;40.00;;;;;;;1.17;94.25;98074.97;2089438;28;20078;-58
2020/12/05 02:18:09;;;;;;;74.60;40.53;;;;;;;1.19;94.30;98080.03;2089525;28;20423;-58
2020/12/05 02:19:16;;;;;;;72.38;42.20;;;;;;;1.17;94.38;98077.53;2089551;28;20029;-57
2020/12/05 02:20:16;;;;;;;76.07;42.08;;;;;;;1.15;94.28;98076.72;2089871;28;20079;-58
2020/12/05 02:21:18;;;;;;;79.82;42.97;;;;;;;1.15;94.33;98079.28;2089805;28;20078;-58
2020/12/05 02:22:25;;;;;;;73.50;41.00;;;;;;;1.15;94.30;98081.84;2089565;28;20067;-58
2020/12/05 02:23:26;;;;;;;72.53;38.80;;;;;;;1.19;94.34;98083.47;2089141;28;20036;-57
2020/12/05 02:24:26;;;;;;;76.05;40.95;;;;;;;1.20;94.22;98087.72;2089956;28;20025;-57
2020/12/05 02:25:27;;;;;;;72.82;40.25;;;;;;;1.19;94.32;98086.03;2087429;28;20036;-58
2020/12/05 02:26:27;;;;;;;69.03;37.73;;;;;;;1.22;94.01;98085.09;2087533;28;20025;-57
2020/12/05 02:27:33;;;;;;;73.67;40.90;;;;;;;1.17;94.06;98087.78;2089401;28;20099;-58
2020/12/05 02:28:34;;;;;;;72.63;40.50;;;;;;;1.18;94.20;98089.47;2083910;28;20516;-58
2020/12/05 02:29:36;;;;;;;67.25;39.00;;;;;;;1.15;94.40;98087.00;2081328;28;20028;-57
2020/12/05 02:30:37;;;;;;;73.68;41.10;;;;;;;1.18;94.48;98089.47;2081763;28;20030;-58
2020/12/05 02:31:38;;;;;;;76.88;41.63;;;;;;;1.15;94.51;98093.84;2085327;28;20049;-58
2020/12/05 02:32:39;;;;;;;69.32;40.63;;;;;;;1.13;94.60;98088.75;2089489;28;20029;-58
2020/12/05 02:33:39;;;;;;;76.03;41.58;;;;;;;1.17;94.02;98097.22;2088678;28;20021;-58
2020/12/05 02:34:40;;;;;;;74.10;41.03;;;;;;;1.16;94.49;98101.50;2088428;28;20036;-58
2020/12/05 02:35:40;;;;;;;77.20;41.28;;;;;;;1.16;94.47;98101.50;2089324;28;20028;-58
2020/12/05 02:36:41;;;;;;;77.27;39.97;;;;;;;1.15;94.37;98107.50;2089861;28;20025;-57
2020/12/05 02:37:43;;;;;;;78.15;42.42;;;;;;;1.15;94.52;98110.09;2089786;28;20278;-57
2020/12/05 02:39:00;;;;;;;73.07;42.80;;;;;;;1.11;94.54;98116.19;2089244;28;20025;-57
2020/12/05 02:40:02;;;;;;;73.00;39.03;;;;;;;1.17;94.49;98122.88;2089134;28;20021;-57
2020/12/05 02:41:02;;;;;;;;;;;;;;;1.18;94.38;98124.53;2081667;28;20076;-57
2020/12/05 02:42:03;;;;;;;77.78;41.00;;;;;;;1.14;94.43;98121.22;2073673;28;19913;-57
2020/12/05 02:43:03;;;;;;;69.30;40.00;;;;;;;1.16;94.41;98116.91;2077603;28;20584;-57
2020/12/05 02:44:04;;;;;;;75.67;40.30;;;;;;;1.20;94.46;98118.53;2080453;28;20037;-57
2020/12/05 02:45:09;;;;;;;64.87;39.13;;;;;;;1.22;94.29;98121.91;2080560;28;20035;-57
2020/12/05 02:46:10;;;;;;;72.82;39.90;;;;;;;1.21;94.23;98120.22;2080900;28;20032;-57
2020/12/05 02:47:10;;;;;;;73.63;39.20;;;;;;;1.18;94.17;98120.28;2081263;28;20025;-58
2020/12/05 02:48:11;;;;;;;71.33;39.43;;;;;;;1.20;93.94;98118.53;2081178;28;20046;-58
2020/12/05 02:49:11;;;;;;;72.60;40.27;;;;;;;1.21;94.17;98109.94;2081257;28;20041;-57
2020/12/05 02:50:11;;;;;;;70.13;38.87;;;;;;;1.30;94.02;98120.84;2081082;28;20104;-57
2020/12/05 02:51:12;;;;;;;64.97;38.23;;;;;;;1.22;93.99;98124.47;2081454;28;20049;-57
2020/12/05 02:52:13;;;;;;;69.70;39.50;;;;;;;1.22;93.99;98128.72;2080929;28;20053;-57
2020/12/05 02:53:13;;;;;;;;;;;;;;;1.17;94.08;98126.28;2081815;28;20048;-57
2020/12/05 02:54:15;;;;;;;68.00;37.95;;;;;;;1.25;93.97;98141.50;2081220;28;19917;-57
2020/12/05 02:55:15;;;;;;;76.82;40.53;;;;;;;1.19;93.95;98142.50;2081084;28;20473;-57
2020/12/05 02:56:19;;;;;;;66.67;38.43;;;;;;;1.25;94.13;98141.50;2081238;28;20037;-57
2020/12/05 02:57:19;;;;;;;71.63;40.35;;;;;;;1.27;94.11;98144.00;2081342;28;20075;-58
2020/12/05 02:58:19;;;;;;;67.27;38.07;;;;;;;1.21;94.13;98145.88;2080868;28;20029;-57
2020/12/05 02:59:20;;;;;;;67.83;38.57;;;;;;;1.20;94.23;98141.63;2081268;28;20496;-57
2020/12/05 03:00:21;;;;;;;78.33;41.63;;;;;;;1.18;94.30;98150.22;2081021;28;20390;-57
2020/12/05 03:01:21;;;;;;;68.78;38.78;;;;;;;1.19;94.48;98151.91;2080509;28;20024;-57
2020/12/05 03:02:21;;;;;;;77.07;40.60;;;;;;;1.14;94.63;98151.19;2080271;28;20462;-57
2020/12/05 03:03:22;;;;;;;75.03;40.70;;;;;;;1.20;94.62;98154.44;2081251;28;20057;-57
2020/12/05 03:04:22;;;;;;;76.27;41.80;;;;;;;1.16;94.84;98157.13;2080763;28;20087;-57
2020/12/05 03:05:23;;;;;;;79.60;41.70;;;;;;;1.15;94.77;98153.69;2081175;28;20478;-58
2020/12/05 03:06:23;;;;;;;77.63;42.53;;;;;;;1.14;94.88;98159.72;2081184;28;20323;-57
2020/12/05 03:07:23;;;;;;;81.40;42.47;;;;;;;1.13;95.05;98162.31;2081281;28;20566;-57
2020/12/05 03:08:23;;;;;;;79.77;41.70;;;;;;;1.18;95.06;98166.47;2080780;28;20023;-58
2020/12/05 03:09:24;;;;;;;74.67;40.23;;;;;;;1.19;95.26;98168.16;2081334;28;20021;-57
2020/12/05 03:10:24;;;;;;;81.23;42.50;;;;;;;1.17;95.17;98175.03;2080996;28;20026;-58
2020/12/05 03:11:24;;;;;;;86.73;42.33;;;;;;;1.15;95.27;98184.50;2080912;28;20088;-57
2020/12/05 03:12:25;;;;;;;86.13;42.53;;;;;;;1.22;95.24;98187.75;2081007;28;20658;-57
2020/12/05 03:13:25;;;;;;;84.10;43.13;;;;;;;1.19;95.30;98198.94;2080412;28;20059;-58
2020/12/05 03:14:26;;;;;;;84.97;43.97;;;;;;;1.24;95.13;98207.34;2077434;28;20041;-57
2020/12/05 03:15:26;;;;;;;83.73;43.73;;;;;;;1.23;95.23;98204.84;2081198;28;20045;-58
2020/12/05 03:16:26;;;;;;;83.00;43.63;;;;;;;1.33;95.06;98216.56;2081285;28;20035;-57
2020/12/05 03:17:26;;;;;;;76.33;42.17;;;;;;;1.26;95.19;98214.19;2081256;28;20726;-57
2020/12/05 03:18:27;;;;;;;83.70;44.77;;;;;;;1.22;95.44;98219.41;2081404;28;20032;-58
2020/12/05 03:19:27;;;;;;;84.33;44.20;;;;;;;1.21;95.51;98212.59;2081068;28;20489;-57
2020/12/05 03:20:27;;;;;;;84.37;43.83;;;;;;;1.23;95.51;98215.94;2081053;28;20026;-57
2020/12/05 03:21:27;;;;;;;85.37;42.63;;;;;;;1.31;95.38;98214.94;2080663;28;20029;-58
2020/12/05 03:22:28;;;;;;;79.07;42.60;;;;;;;1.26;95.46;98211.63;2080766;28;20025;-57
2020/12/05 03:23:29;;;;;;;82.78;42.22;;;;;;;1.26;95.50;98215.03;2080528;28;20030;-58
2020/12/05 03:24:29;;;;;;;89.13;45.43;;;;;;;1.24;95.58;98209.94;2081188;28;20151;-58
2020/12/05 03:25:30;;;;;;;91.43;46.47;;;;;;;1.23;95.71;98207.41;2081168;28;20030;-58
2020/12/05 03:26:30;;;;;;;82.10;43.03;;;;;;;1.24;95.76;98212.50;2080227;28;20025;-58
2020/12/05 03:27:31;;;;;;;89.77;45.83;;;;;;;1.26;95.59;98215.03;2080460;28;20076;-57
2020/12/05 03:28:31;;;;;;;86.13;43.27;;;;;;;1.26;95.73;98209.91;2080460;28;20029;-58
2020/12/05 03:29:32;;;;;;;85.37;43.80;;;;;;;1.26;95.71;98211.63;2080498;28;20049;-58
2020/12/05 03:30:32;;;;;;;87.63;45.88;;;;;;;1.26;95.63;98211.63;2081189;28;20101;-57
2020/12/05 03:31:46;;;;;;;84.53;42.60;;;;;;;1.29;95.61;98208.97;2081093;28;20060;-58
2020/12/05 03:32:47;;;;;;;82.32;43.08;;;;;;;1.32;95.64;98203.78;2072942;28;20032;-57
2020/12/05 03:33:48;;;;;;;75.57;41.28;;;;;;;1.35;95.45;98208.81;2072868;28;20394;-57
2020/12/05 03:34:48;;;;;;;88.00;44.17;;;;;;;1.31;95.62;98204.66;2073157;28;20075;-57
2020/12/05 03:35:49;;;;;;;80.45;41.30;;;;;;;1.32;95.80;98206.34;2072879;28;20033;-57
2020/12/05 03:36:49;;;;;;;82.93;43.63;;;;;;;1.37;95.55;98202.75;2073145;28;20029;-57
2020/12/05 03:37:50;;;;;;;87.90;44.27;;;;;;;1.33;95.66;98211.44;2073843;28;20025;-57
2020/12/05 03:38:53;;;;;;;81.60;43.13;;;;;;;1.32;95.69;98211.47;2079563;28;20025;-57
2020/12/05 03:39:53;;;;;;;83.63;42.90;;;;;;;1.34;95.65;98214.84;2075758;28;20029;-58
2020/12/05 03:40:53;;;;;;;81.63;43.07;;;;;;;1.39;95.74;98230.97;2081065;28;20030;-57
2020/12/05 03:41:54;;;;;;;85.17;42.73;;;;;;;1.40;95.70;98227.53;2080315;28;20060;-57
2020/12/05 03:42:54;;;;;;;88.93;45.20;;;;;;;1.40;95.85;98241.19;2080326;28;20030;-58
2020/12/05 03:43:54;;;;;;;89.17;42.70;;;;;;;1.41;95.73;98239.50;2080757;28;20881;-58
2020/12/05 03:44:55;;;;;;;78.87;42.97;;;;;;;1.44;95.91;98246.25;2081106;28;20030;-57
2020/12/05 03:45:55;;;;;;;87.17;43.97;;;;;;;1.47;95.96;98252.16;2080959;28;20108;-57
2020/12/05 03:46:55;;;;;;;83.90;42.77;;;;;;;1.47;95.81;98252.16;2081089;28;20079;-57
2020/12/05 03:47:56;;;;;;;79.33;42.10;;;;;;;1.60;95.73;98257.00;2080956;28;20029;-57
2020/12/05 03:48:56;;;;;;;82.53;43.63;;;;;;;1.54;95.76;98261.38;2081234;28;20104;-57
2020/12/05 03:49:56;;;;;;;76.47;40.93;;;;;;;1.63;95.82;98264.59;2081010;28;20426;-57
2020/12/05 03:50:57;;;;;;;76.37;41.83;;;;;;;1.71;95.74;98273.00;2081089;28;20474;-57
2020/12/05 03:52:01;;;;;;;79.90;43.20;;;;;;;1.69;95.65;98273.00;2081072;28;20040;-60
2020/12/05 03:53:01;;;;;;;85.35;43.60;;;;;;;1.65;95.80;98270.56;2080819;28;20425;-57
2020/12/05 03:54:01;;;;;;;75.60;41.30;;;;;;;1.71;95.79;98262.72;2080938;28;20040;-57
2020/12/05 03:55:02;;;;;;;79.77;41.60;;;;;;;1.67;95.77;98254.22;2080993;28;20022;-57
2020/12/05 03:56:02;;;;;;;83.87;42.37;;;;;;;1.66;95.78;98249.13;2081115;28;20064;-57
2020/12/05 03:57:03;;;;;;;71.03;40.03;;;;;;;1.74;95.86;98236.09;2080946;28;20083;-57
2020/12/05 03:58:03;;;;;;;73.90;39.97;;;;;;;1.78;95.65;98235.13;2081082;28;20033;-57
2020/12/05 03:59:03;;;;;;;79.43;41.93;;;;;;;1.71;95.72;98232.72;2080801;28;20025;-57
2020/12/05 04:00:04;;;;;;;81.50;42.03;;;;;;;1.66;95.79;98231.16;2081104;28;20033;-58
2020/12/05 04:01:07;;;;;;;76.63;41.40;;;;;;;1.74;95.88;98242.06;2080846;28;20033;-57
2020/12/05 04:02:08;;;;;;;70.32;38.60;;;;;;;1.73;95.71;98240.38;2080867;28;20026;-57
2020/12/05 04:03:08;;;;;;;74.07;40.30;;;;;;;1.71;95.95;98237.03;2080901;28;20033;-57
2020/12/05 04:04:08;;;;;;;73.30;41.07;;;;;;;1.71;95.96;98232.72;2080973;28;20029;-57
2020/12/05 04:05:09;;;;;;;71.30;38.63;;;;;;;1.69;95.95;98219.06;2080863;28;20025;-58
2020/12/05 04:06:12;;;;;;;75.07;40.27;;;;;;;1.72;95.90;98228.41;2081031;28;20040;-57
2020/12/05 04:07:12;;;;;;;75.05;38.92;;;;;;;1.73;95.90;98229.28;2080707;28;20025;-57
2020/12/05 04:08:12;;;;;;;71.20;38.67;;;;;;;1.72;96.03;98233.56;2081011;28;20049;-57
2020/12/05 04:09:13;;;;;;;65.33;37.40;;;;;;;1.74;96.05;98236.94;2080798;28;20559;-57
2020/12/05 04:10:13;;;;;;;65.80;37.90;;;;;;;1.75;96.09;98241.19;2080983;28;20034;-57
2020/12/05 04:11:14;;;;;;;73.37;40.47;;;;;;;1.76;96.06;98235.19;2080849;28;20104;-58
2020/12/05 04:12:14;;;;;;;72.33;38.17;;;;;;;1.80;96.01;98246.22;2080786;28;20027;-57
2020/12/05 04:13:14;;;;;;;75.07;39.13;;;;;;;1.82;95.90;98249.59;2080781;28;20487;-57
2020/12/05 04:14:15;;;;;;;64.67;37.17;;;;;;;1.83;95.87;98254.66;2080832;28;20022;-57
2020/12/05 04:15:15;;;;;;;68.27;38.27;;;;;;;1.87;95.69;98247.72;2080737;28;20033;-57
2020/12/05 04:16:15;;;;;;;68.70;37.53;;;;;;;1.85;95.87;98246.94;2080973;28;20036;-58
2020/12/05 04:17:16;;;;;;;67.90;38.00;;;;;;;1.85;95.97;98252.09;2080875;28;20761;-57
2020/12/05 04:18:16;;;;;;;67.87;38.90;;;;;;;1.82;95.91;98255.56;2080899;28;20440;-57
2020/12/05 04:19:16;;;;;;;64.63;35.90;;;;;;;1.90;96.06;98263.06;2080766;28;20025;-57
2020/12/05 04:20:17;;;;;;;66.43;38.00;;;;;;;1.85;96.02;98270.06;2080880;28;20026;-57
2020/12/05 04:21:17;;;;;;;68.30;37.43;;;;;;;1.92;95.95;98281.84;2080808;28;20420;-57
2020/12/05 04:22:17;;;;;;;63.10;35.40;;;;;;;1.89;95.86;98276.78;2080601;28;20053;-57
2020/12/05 04:23:18;;;;;;;69.30;36.90;;;;;;;1.87;96.14;98278.56;2102895;23;20086;-74
2020/12/05 04:24:18;;;;;;;71.45;38.17;;;;;;;1.87;96.07;98278.56;2081896;28;20456;-74
2020/12/05 04:25:18;;;;;;;67.83;37.27;;;;;;;1.91;95.80;98284.47;2080860;28;20462;-74
2020/12/05 04:26:22;;;;;;;64.80;35.17;;;;;;;1.90;96.23;98286.19;2083888;28;20102;-74
2020/12/05 04:27:23;;;;;;;69.78;37.95;;;;;;;1.92;96.32;98291.28;2088656;28;20024;-74
2020/12/05 04:28:23;;;;;;;65.00;35.83;;;;;;;1.94;96.22;98295.50;2088648;28;20028;-74
2020/12/05 04:29:23;;;;;;;63.17;35.90;;;;;;;1.90;96.21;98299.03;2094731;28;20099;-74
2020/12/05 04:30:24;;;;;;;69.17;37.60;;;;;;;1.89;96.24;98296.50;2083052;28;20434;-74
2020/12/05 04:31:24;;;;;;;70.23;37.13;;;;;;;1.91;96.32;98302.47;2080382;28;20037;-74
2020/12/05 04:32:24;;;;;;;64.10;35.80;;;;;;;1.91;96.38;98299.91;2080234;28;20025;-74
2020/12/05 04:33:24;;;;;;;61.87;36.63;;;;;;;1.92;96.44;98304.13;2077149;28;20026;-75
2020/12/05 04:34:25;;;;;;;70.77;36.57;;;;;;;1.92;96.47;98306.69;2080698;28;20101;-74
2020/12/05 04:35:25;;;;;;;66.70;36.93;;;;;;;1.90;96.77;98299.03;2075971;28;20081;-75
2020/12/05 04:36:25;;;;;;;73.00;38.77;;;;;;;1.92;96.45;98294.72;2072784;28;20060;-74
2020/12/05 04:37:30;;;;;;;75.03;38.57;;;;;;;1.94;96.60;98300.66;2086249;28;20048;-74
2020/12/05 04:38:30;;;;;;;69.45;35.63;;;;;;;1.95;96.61;98306.63;2080079;28;20467;-74
2020/12/05 04:39:30;;;;;;;72.63;38.30;;;;;;;1.98;96.67;98309.13;2076705;28;20049;-74
2020/12/05 04:40:31;;;;;;;70.30;37.57;;;;;;;1.95;96.61;98291.22;2072659;28;20096;-74
2020/12/05 04:41:31;;;;;;;61.30;34.53;;;;;;;1.98;96.50;98286.00;2072860;28;20030;-75
2020/12/05 04:42:32;;;;;;;70.63;35.13;;;;;;;2.00;96.75;98279.09;2072408;28;20257;-74
2020/12/05 04:43:34;;;;;;;63.53;35.83;;;;;;;1.97;96.58;98279.16;2075471;28;20021;-75
2020/12/05 04:44:35;;;;;;;67.55;35.95;;;;;;;1.98;96.71;98275.72;2080741;28;20021;-74
2020/12/05 04:45:35;;;;;;;70.30;35.83;;;;;;;1.98;96.80;98281.69;2080836;28;20022;-74